Terminal Aerodrome Forecast
Issued by NWS

Home | Current Version | Previous Version | Text Only | Print | Product List | Glossary On
Versions: 1 2 3 4 5 6 7 8 9 10 11 12 13 14 15 16 17 18 19 20 21 22 23 24 25 26
000
FTUS46 KOTX 232103 AAA
TAFSFF
TAF AMD
KSFF 232103Z 2321/2418 VRB02KT P6SM OVC010
     FM232130 VRB03KT P6SM FEW007
     FM240600 VRB02KT 3SM BR BCFG SCT002
     FM241200 00000KT 4SM BR OVC007
     FM241700 00000KT P6SM BKN008=

USA.gov is the U.S. government's official web portal to all federal, state and local government web resources and services.